South Woodstock, VT (05071)

6:22 AM EDT on July 28, 2015 (GMT -0400)
Quechee Lakes Sec 1 | | Change Station
CLOSE
Current Station
Personal Weather Station
Location: Quechee, VT
Elevation: 1180 ft
Nearby Weather Stations

Elev 1180 ft 43.65 °N, 72.46 °W | Updated 6 seconds ago

Overcast
Overcast
64.7 °F
Feels Like 64.7 °F
N
0.0
Wind Variable Wind from SE
Gusts 0.0 mph

Today
High -- | Low -- °F
--% Chance of Precip.
Yesterday
High -- | Low -- °F
Precip. -- in
5:35 AM 8:17 PM
Waxing Gibbous, 88% visible
Pressure 29.99 in
Visibility 4.0 miles
Clouds Scattered Clouds 900 ft
Mostly Cloudy 11000 ft
Dew Point 63 °F
Humidity 93%
Rainfall 0.00 in
Snow Depth Not available.
UV 0 out of 12
Pollen 4.50 out of 12
Air Quality Not available.
Flu Activity Not available.
SPECI KLEB 281017Z 00000KT 4SM BR SCT009 BKN110 20/19 A2999 RMK AO2 RAE03 P0001 T02000189

More Conditions Fewer Conditions

Pressure 29.99 in
Visibility 4.0 miles
Clouds Scattered Clouds 900 ft
Mostly Cloudy 11000 ft
Dew Point 63 °F
Humidity 93%
Rainfall 0.00 in
Snow Depth Not available.
UV 0 out of 12
Pollen 4.50 out of 12
Air Quality Not available.
Flu Activity Not available.
SPECI KLEB 281017Z 00000KT 4SM BR SCT009 BKN110 20/19 A2999 RMK AO2 RAE03 P0001 T02000189

More Conditions Fewer Conditions

10-Day Weather Forecast

×

Almanac

Astronomy

Jul. 28, 2015 Rise Set
Actual Time
Civil Twilight
Nautical Twilight
Astronomical Twilight
Moon
Length of Visible Light
Length of Day
Tomorrow will be .
, % of the Moon is Illuminated

Today's Extremes

State Highs State Lows

Community

WunderPhotos

Upload Photos

1,841,800 photos uploaded!

WunderBlogs® & News

Nearby

Air Quality

  Air Quality AQ Index Pollutant
Not available.

Snow Depth

Station Depth Elevation

Earthquake Activity

City Distance Mag. Time & Date
Minimum magnitude displayed is 2.5.

Coastal Water Temperatures

Place Temperature

Stations

Nearby Weather Stations

Station Location Temp. Windchill Dew Point Humidity Wind Precip. Elev Updated Type